Mc Call Municipal Airport Mc Call US
ICAO: KMYL
IATA: MYL
Category: Medium
Scheduled Services: No

Elevation: 5024 ft
TransAlt. 18000 ft.

Airport Communications:
ASOS:119.925
SALT LAKE CITY CNTR:128.05
BOISE RDO:122.35
CTAF/UNICOM:122.8

KMYL Zoom In..

If you have problems with the map follow the link
https://www.worldairports.se/pages/airport.php?
ICAO=KMYL

Runways:

(A) RW 16 length 6108 ft width 75 ft
---- / hdg 162

(B) RW 34 length 6108 ft width 75 ft
---- / hdg 342

Location; KMYL
Day. 14 / Time. 05.17 Zulu
* Altimeter: 29.84
* Temperature: -02° c. -28.4°f.
* Wind from: 350° Speed 04 kn.
Dewpoint: -05° c.
Visibility: 10 Statute Miles.
Clouds: Broken 1200 ft.
Clouds: Overcast 4400 ft.

KMYL 140517Z AUTO 35004KT 10SM BKN012 OVC044 M02/M05 A2984 RMK AO2 T10221050


Wind From 350°
Speed 04 kn.

 
 
jpsmedia worldairports.se 2019   terms of use